Time;durP1;ratioP1;P1;durP2;ratioP2;P2;SDS_P1;SDS_P2;PMS_P1;PMS_P2;Temp;Humidity;BMP_temperature;BMP_pressure;BME280_temperature;BME280_humidity;BME280_pressure;Samples;Min_cycle;Max_cycle;Signal;HPM_P1;HPM_P2
2021/10/29 00:01:02;;;;;;;20.55;11.95;;;13.30;98.50;;;;;;5087922;28;20413;-75
2021/10/29 00:03:28;;;;;;;18.92;11.82;;;13.40;98.60;;;;;;5071464;28;20966;-75
2021/10/29 00:05:54;;;;;;;14.93;10.85;;;13.30;98.50;;;;;;5092760;28;20181;-74
2021/10/29 00:08:19;;;;;;;21.30;11.30;;;13.00;98.80;;;;;;5062025;28;20643;-74
2021/10/29 00:10:45;;;;;;;18.00;12.37;;;12.70;99.10;;;;;;5087444;28;20910;-75
2021/10/29 00:13:11;;;;;;;19.55;12.35;;;13.00;99.30;;;;;;5070569;28;20429;-74
2021/10/29 00:15:38;;;;;;;19.77;11.82;;;13.10;99.10;;;;;;5086212;28;20417;-73
2021/10/29 00:18:04;;;;;;;17.85;12.38;;;13.10;99.00;;;;;;5089370;28;20759;-73
2021/10/29 00:20:30;;;;;;;17.50;11.83;;;13.10;98.90;;;;;;5088651;28;20417;-74
2021/10/29 00:22:56;;;;;;;16.05;11.68;;;13.10;98.90;;;;;;5089819;28;21035;-73
2021/10/29 00:25:21;;;;;;;15.90;12.00;;;13.10;98.80;;;;;;5071020;28;20496;-74
2021/10/29 00:27:47;;;;;;;16.98;12.20;;;13.10;98.80;;;;;;5089206;28;20627;-73
2021/10/29 00:30:13;;;;;;;17.03;12.33;;;13.10;98.80;;;;;;5054699;28;20401;-73
2021/10/29 00:32:39;;;;;;;18.77;12.63;;;13.10;98.80;;;;;;5069895;28;20424;-73
2021/10/29 00:35:05;;;;;;;17.80;12.00;;;13.10;98.80;;;;;;5105011;28;20862;-73
2021/10/29 00:37:37;;;;;;;17.90;11.77;;;13.10;98.90;;;;;;5071162;28;20398;-74
2021/10/29 00:40:08;;;;;;;16.67;11.85;;;13.10;98.80;;;;;;5069307;28;20463;-75
2021/10/29 00:42:34;;;;;;;18.93;12.17;;;13.00;98.80;;;;;;5093268;28;20405;-74
2021/10/29 00:44:59;;;;;;;17.35;11.85;;;13.00;98.80;;;;;;5086500;28;20433;-74
2021/10/29 00:47:25;;;;;;;17.37;11.90;;;13.00;98.90;;;;;;5054242;28;20413;-74
2021/10/29 00:49:51;;;;;;;16.65;11.43;;;12.90;98.90;;;;;;5084379;28;20405;-74
2021/10/29 00:52:16;;;;;;;14.70;11.33;;;13.00;99.00;;;;;;5070003;28;20417;-75
2021/10/29 00:54:42;;;;;;;16.83;11.60;;;13.00;99.20;;;;;;5088037;28;20415;-74
2021/10/29 00:57:08;;;;;;;16.52;11.85;;;13.00;99.10;;;;;;5088639;28;20402;-73
2021/10/29 00:59:33;;;;;;;18.43;11.97;;;12.90;99.10;;;;;;5068774;28;20436;-74
2021/10/29 01:01:59;;;;;;;15.52;11.35;;;12.90;99.00;;;;;;5070113;28;20445;-73
2021/10/29 01:04:26;;;;;;;17.58;11.82;;;12.90;99.00;;;;;;5091116;28;20427;-74
2021/10/29 01:06:51;;;;;;;17.90;11.70;;;12.90;99.10;;;;;;5086778;28;20397;-73
2021/10/29 01:09:17;;;;;;;18.88;11.70;;;12.90;99.00;;;;;;5070110;28;20402;-74
2021/10/29 01:11:43;;;;;;;16.17;11.80;;;12.90;99.00;;;;;;5087121;28;20421;-74
2021/10/29 01:14:09;;;;;;;15.25;11.70;;;12.90;99.00;;;;;;5086391;28;22340;-74
2021/10/29 01:16:35;;;;;;;16.63;11.57;;;12.90;99.00;;;;;;5086853;28;20500;-74
2021/10/29 01:19:00;;;;;;;14.70;11.43;;;12.90;99.00;;;;;;5069790;28;20890;-75
2021/10/29 01:21:26;;;;;;;15.10;11.37;;;12.90;99.00;;;;;;5067101;28;20936;-75
2021/10/29 01:23:52;;;;;;;17.63;11.82;;;12.90;98.90;;;;;;5069381;28;21053;-75
2021/10/29 01:26:18;;;;;;;16.98;11.85;;;12.90;99.00;;;;;;5086398;28;20409;-75
2021/10/29 01:28:46;;;;;;;16.90;11.53;;;12.90;99.10;;;;;;5069452;28;20950;-74
2021/10/29 01:31:12;;;;;;;15.73;11.73;;;12.90;99.10;;;;;;5068667;28;20965;-75
2021/10/29 01:33:38;;;;;;;16.40;11.80;;;12.90;99.20;;;;;;5087634;28;20488;-74
2021/10/29 01:36:05;;;;;;;14.95;11.30;;;12.90;99.10;;;;;;5085767;28;20505;-75
2021/10/29 01:38:38;;;;;;;17.55;11.38;;;12.80;99.10;;;;;;5069121;28;20831;-75
2021/10/29 01:41:05;;;;;;;17.27;11.65;;;12.80;99.20;;;;;;5084910;28;20883;-75
2021/10/29 01:43:44;;;;;;;16.20;11.40;;;12.80;99.20;;;;;;5086917;28;20414;-75
2021/10/29 01:46:11;;;;;;;15.63;11.43;;;12.80;99.30;;;;;;5082946;28;20474;-75
2021/10/29 01:48:45;;;;;;;17.20;11.43;;;12.70;99.50;;;;;;5085550;28;20966;-75
2021/10/29 01:51:11;;;;;;;17.25;11.60;;;12.70;99.40;;;;;;5085823;28;20413;-74
2021/10/29 01:53:37;;;;;;;17.37;11.40;;;12.70;99.40;;;;;;5087634;28;20909;-74
2021/10/29 01:56:03;;;;;;;15.65;11.13;;;12.70;99.40;;;;;;5084632;28;20410;-75
2021/10/29 01:58:28;;;;;;;15.03;11.30;;;12.70;99.50;;;;;;5086905;28;20409;-73
2021/10/29 02:00:54;;;;;;;15.38;11.30;;;12.70;99.40;;;;;;5068151;28;20424;-74
2021/10/29 02:03:20;;;;;;;17.13;11.23;;;12.70;99.40;;;;;;5086618;28;20813;-74
2021/10/29 02:05:45;;;;;;;14.97;10.90;;;12.70;99.50;;;;;;5085710;28;20486;-74
2021/10/29 02:08:11;;;;;;;15.73;11.50;;;12.70;99.50;;;;;;5087050;28;20417;-74
2021/10/29 02:10:37;;;;;;;15.80;11.15;;;12.70;99.40;;;;;;5084861;28;20444;-74
2021/10/29 02:13:03;;;;;;;16.83;11.73;;;12.70;99.30;;;;;;5060059;28;1078703;-74
2021/10/29 02:15:29;;;;;;;16.48;11.50;;;12.70;99.40;;;;;;5070795;28;20437;-74
2021/10/29 02:17:55;;;;;;;17.55;11.63;;;12.60;99.40;;;;;;5086735;28;20425;-75
2021/10/29 02:20:21;;;;;;;18.35;11.52;;;12.60;99.40;;;;;;5059134;28;20412;-75
2021/10/29 02:22:47;;;;;;;15.87;11.77;;;12.60;99.50;;;;;;5106293;27;20890;-75
2021/10/29 02:25:12;;;;;;;16.23;11.27;;;12.60;99.50;;;;;;5087466;28;20432;-75
2021/10/29 02:27:38;;;;;;;16.65;11.73;;;12.60;99.50;;;;;;5088917;28;20405;-74
2021/10/29 02:30:04;;;;;;;16.93;11.20;;;12.50;99.50;;;;;;5105920;28;20442;-74
2021/10/29 02:32:31;;;;;;;16.08;11.48;;;12.50;99.60;;;;;;5076478;28;20405;-74
2021/10/29 02:34:56;;;;;;;17.08;11.60;;;12.50;99.60;;;;;;5089944;28;20421;-74
2021/10/29 02:37:22;;;;;;;16.20;11.43;;;12.50;99.50;;;;;;5091144;28;20406;-74
2021/10/29 02:39:48;;;;;;;14.93;11.35;;;12.50;99.50;;;;;;5055311;28;20409;-75
2021/10/29 02:42:14;;;;;;;14.67;10.93;;;12.50;99.60;;;;;;5072804;28;20496;-73
2021/10/29 02:44:41;;;;;;;15.23;11.75;;;12.40;99.50;;;;;;5071738;28;20458;-74
2021/10/29 02:47:08;;;;;;;18.80;11.50;;;12.40;99.70;;;;;;5089914;28;20409;-74
2021/10/29 02:49:33;;;;;;;15.60;11.63;;;12.40;99.60;;;;;;5089168;28;20404;-74
2021/10/29 02:51:59;;;;;;;15.10;11.00;;;12.40;99.60;;;;;;5089761;28;20406;-74
2021/10/29 02:54:24;;;;;;;15.23;11.02;;;12.40;99.70;;;;;;5089395;28;20398;-74
2021/10/29 02:56:50;;;;;;;16.40;11.57;;;12.40;99.70;;;;;;5089708;28;20408;-74
2021/10/29 02:59:16;;;;;;;18.57;11.23;;;12.30;99.70;;;;;;5097100;28;20417;-74
2021/10/29 03:01:41;;;;;;;17.10;11.48;;;12.30;99.70;;;;;;5088298;28;20502;-74
2021/10/29 03:04:07;;;;;;;15.03;11.43;;;12.30;99.90;;;;;;5090210;28;20413;-74
2021/10/29 03:06:33;;;;;;;14.37;11.17;;;12.30;99.90;;;;;;5070889;28;20410;-74
2021/10/29 03:08:58;;;;;;;16.60;11.00;;;12.30;99.80;;;;;;5090174;28;20891;-74
2021/10/29 03:11:25;;;;;;;16.73;11.13;;;12.30;99.80;;;;;;5053745;28;20500;-74
2021/10/29 03:13:50;;;;;;;15.43;11.02;;;12.30;99.90;;;;;;5089760;28;20428;-74
2021/10/29 03:16:16;;;;;;;15.90;11.00;;;12.30;99.90;;;;;;5088634;28;20413;-74
2021/10/29 03:18:42;;;;;;;15.07;10.88;;;12.30;99.90;;;;;;5089901;28;20405;-74
2021/10/29 03:21:07;;;;;;;17.10;11.53;;;12.30;99.90;;;;;;5089663;28;20413;-74
2021/10/29 03:23:33;;;;;;;18.45;11.60;;;12.20;99.90;;;;;;5089579;28;20406;-74
2021/10/29 03:25:59;;;;;;;14.67;10.80;;;12.20;99.90;;;;;;5088162;28;20785;-74
2021/10/29 03:28:24;;;;;;;16.08;11.00;;;12.30;99.90;;;;;;5089006;28;20451;-74
2021/10/29 03:30:50;;;;;;;16.48;10.80;;;12.30;99.90;;;;;;5086755;28;20488;-74
2021/10/29 03:33:16;;;;;;;16.50;10.90;;;12.30;99.90;;;;;;5089545;28;20430;-74
2021/10/29 03:35:41;;;;;;;14.90;10.52;;;12.30;99.90;;;;;;5053462;28;20496;-75
2021/10/29 03:43:24;;;;;;;16.30;11.00;;;12.30;99.90;;;;;;5089396;28;20413;-73
2021/10/29 03:46:07;;;;;;;14.90;10.55;;;12.30;99.90;;;;;;5094641;28;20425;-74
2021/10/29 03:53:52;;;;;;;14.30;10.57;;;12.30;99.90;;;;;;5089258;28;20430;-73
2021/10/29 03:56:20;;;;;;;18.67;10.43;;;12.20;99.90;;;;;;5086666;28;20441;-73
2021/10/29 03:58:47;;;;;;;15.52;10.45;;;12.20;99.90;;;;;;5068471;28;20418;-73
2021/10/29 04:01:13;;;;;;;17.13;10.40;;;12.20;99.90;;;;;;5086962;28;20436;-73
2021/10/29 04:03:39;;;;;;;16.15;11.10;;;12.20;99.90;;;;;;5087381;28;20401;-74
2021/10/29 04:06:04;;;;;;;15.90;10.80;;;12.20;99.90;;;;;;5086848;28;20832;-73
2021/10/29 04:08:30;;;;;;;17.05;10.90;;;12.20;99.90;;;;;;5088630;28;20420;-74
2021/10/29 04:10:57;;;;;;;16.98;10.82;;;12.20;99.90;;;;;;5086519;28;20771;-74
2021/10/29 04:13:26;;;;;;;17.88;10.95;;;12.20;99.90;;;;;;5085273;28;20421;-74
2021/10/29 04:15:52;;;;;;;15.43;11.10;;;12.20;99.90;;;;;;5086189;28;20409;-73
2021/10/29 04:18:17;;;;;;;15.68;11.15;;;12.20;99.90;;;;;;5069558;28;20959;-74
2021/10/29 04:20:43;;;;;;;15.68;10.57;;;12.20;99.90;;;;;;5089385;28;20450;-74
2021/10/29 04:23:08;;;;;;;15.87;10.57;;;12.20;99.90;;;;;;5088094;28;21134;-73
2021/10/29 04:25:34;;;;;;;17.10;11.02;;;12.20;99.90;;;;;;5086773;28;20890;-73
2021/10/29 04:28:05;;;;;;;16.23;10.97;;;12.20;99.90;;;;;;5090819;28;20461;-74
2021/10/29 04:30:31;;;;;;;17.13;11.23;;;12.20;99.90;;;;;;5086281;28;20470;-74
2021/10/29 04:32:58;;;;;;;21.13;10.40;;;12.20;99.90;;;;;;5088254;28;20402;-77
2021/10/29 04:35:26;;;;;;;17.53;10.50;;;12.20;99.90;;;;;;5067941;28;20474;-74
2021/10/29 04:37:52;;;;;;;15.27;11.13;;;12.20;99.90;;;;;;5088466;28;20524;-74
2021/10/29 04:40:18;;;;;;;15.52;10.52;;;12.20;99.90;;;;;;5066920;28;20829;-75
2021/10/29 04:42:44;;;;;;;17.48;10.55;;;12.20;99.90;;;;;;5069233;28;20413;-74
2021/10/29 04:45:10;;;;;;;17.63;10.77;;;12.20;99.90;;;;;;5086275;28;20467;-73
2021/10/29 04:47:35;;;;;;;17.77;10.23;;;12.20;99.90;;;;;;5087727;28;20535;-74
2021/10/29 04:50:05;;;;;;;18.17;11.20;;;12.20;99.90;;;;;;5086338;28;20485;-74
2021/10/29 04:52:31;;;;;;;14.98;10.80;;;12.20;99.90;;;;;;5086754;28;20499;-75
2021/10/29 04:54:57;;;;;;;16.55;9.98;;;12.20;99.90;;;;;;5068523;28;20492;-75
2021/10/29 04:57:22;;;;;;;14.57;10.50;;;12.20;99.90;;;;;;5087707;28;20429;-74
2021/10/29 04:59:48;;;;;;;15.93;10.03;;;12.20;99.90;;;;;;5090221;28;20483;-75
2021/10/29 05:02:14;;;;;;;14.90;10.60;;;12.20;99.90;;;;;;5069948;28;20477;-75
2021/10/29 05:04:40;;;;;;;15.25;10.07;;;12.20;99.90;;;;;;5086205;28;20416;-75
2021/10/29 05:07:06;;;;;;;16.73;10.48;;;12.20;99.90;;;;;;5069518;28;20401;-75
2021/10/29 05:09:32;;;;;;;14.77;10.23;;;12.20;99.90;;;;;;5084845;28;20409;-75
2021/10/29 05:11:58;;;;;;;16.75;10.75;;;12.20;99.90;;;;;;5102815;28;20409;-75
2021/10/29 05:14:23;;;;;;;17.23;10.67;;;12.20;99.90;;;;;;5067919;28;20410;-75
2021/10/29 05:16:50;;;;;;;14.43;10.00;;;12.30;99.90;;;;;;5088902;28;20417;-75
2021/10/29 05:19:16;;;;;;;16.35;10.20;;;12.30;99.90;;;;;;5070419;28;20484;-74
2021/10/29 05:21:42;;;;;;;14.73;10.02;;;12.30;99.90;;;;;;5087681;28;20418;-74
2021/10/29 05:24:08;;;;;;;15.98;10.13;;;12.30;99.90;;;;;;5097278;28;20410;-75
2021/10/29 05:26:33;;;;;;;14.20;10.02;;;12.30;99.90;;;;;;5087489;28;20400;-73
2021/10/29 05:28:59;;;;;;;16.57;10.17;;;12.30;99.90;;;;;;5070577;28;20408;-74
2021/10/29 05:31:25;;;;;;;17.13;10.07;;;12.30;99.90;;;;;;5087024;28;20429;-74
2021/10/29 05:33:50;;;;;;;13.50;9.80;;;12.30;99.90;;;;;;5068338;28;20414;-74
2021/10/29 05:36:16;;;;;;;16.70;10.60;;;12.30;99.90;;;;;;5086192;28;20414;-74
2021/10/29 05:38:42;;;;;;;14.37;10.03;;;12.30;99.90;;;;;;5087384;28;20898;-74
2021/10/29 05:41:07;;;;;;;15.55;10.10;;;12.30;99.90;;;;;;5085177;28;20428;-74
2021/10/29 05:43:33;;;;;;;15.97;10.30;;;12.30;99.90;;;;;;5086487;28;20447;-73
2021/10/29 05:45:59;;;;;;;15.38;10.05;;;12.30;99.90;;;;;;5068373;28;20495;-74
2021/10/29 05:48:25;;;;;;;15.50;10.07;;;12.30;99.90;;;;;;5068609;28;21255;-74
2021/10/29 05:50:52;;;;;;;15.35;9.90;;;12.20;99.90;;;;;;5085800;28;20402;-74
2021/10/29 05:56:05;;;;;;;17.05;9.70;;;12.20;99.90;;;;;;5045623;28;20472;-74
2021/10/29 05:58:34;;;;;;;15.03;9.57;;;12.20;99.90;;;;;;5087019;28;20409;-74
2021/10/29 06:01:00;;;;;;;13.82;9.55;;;12.20;99.90;;;;;;5085602;28;20425;-74
2021/10/29 06:03:26;;;;;;;14.90;9.98;;;12.20;99.90;;;;;;5085914;28;20894;-74
2021/10/29 06:05:52;;;;;;;12.43;9.70;;;12.20;99.90;;;;;;5066350;28;20421;-74
2021/10/29 06:08:18;;;;;;;16.15;9.60;;;12.20;99.90;;;;;;5067921;28;20410;-73
2021/10/29 06:10:44;;;;;;;16.40;9.85;;;12.20;99.90;;;;;;5067869;28;20452;-74
2021/10/29 06:13:10;;;;;;;15.67;10.13;;;12.20;99.90;;;;;;5067951;28;20421;-74
2021/10/29 06:15:36;;;;;;;14.52;9.82;;;12.20;99.90;;;;;;5068124;28;20425;-74
2021/10/29 06:18:02;;;;;;;16.70;9.73;;;12.20;99.90;;;;;;5080850;28;20418;-74
2021/10/29 06:20:30;;;;;;;15.65;9.70;;;12.20;99.90;;;;;;5069775;28;20909;-74
2021/10/29 06:22:56;;;;;;;15.82;10.50;;;12.10;99.90;;;;;;5080379;28;20751;-75
2021/10/29 06:25:26;;;;;;;17.63;10.02;;;12.20;99.90;;;;;;5081443;28;20602;-72
2021/10/29 06:30:40;;;;;;;14.75;10.07;;;12.20;99.90;;;;;;5082906;28;20409;-73
2021/10/29 06:33:08;;;;;;;15.07;10.10;;;12.10;99.90;;;;;;5067410;28;20860;-73
2021/10/29 06:35:34;;;;;;;16.88;9.98;;;12.20;99.90;;;;;;5088008;28;20487;-73
2021/10/29 06:38:00;;;;;;;15.93;9.43;;;12.10;99.90;;;;;;5067474;28;20462;-72
2021/10/29 06:40:31;;;;;;;15.75;9.60;;;12.10;99.90;;;;;;5087041;28;20498;-74
2021/10/29 06:43:01;;;;;;;15.63;9.80;;;12.10;99.90;;;;;;5084518;28;20417;-75
2021/10/29 06:52:06;;;;;;;19.57;9.60;;;12.20;99.90;;;;;;5086289;28;20493;-73
2021/10/29 07:42:50;;;;;;;13.95;8.88;;;12.50;99.90;;;;;;5088677;28;20786;-74
2021/10/29 07:45:16;;;;;;;13.10;8.03;;;12.60;99.90;;;;;;5082992;28;20439;-73
2021/10/29 07:47:43;;;;;;;11.50;8.03;;;13.00;99.90;;;;;;5070124;28;20453;-73
2021/10/29 07:50:12;;;;;;;13.95;8.30;;;13.70;99.20;;;;;;5067296;28;20421;-73
2021/10/29 07:52:40;;;;;;;12.80;8.48;;;14.30;97.70;;;;;;5092976;28;20408;-77
2021/10/29 07:55:08;;;;;;;12.23;8.40;;;14.80;96.10;;;;;;5074305;28;20854;-74
2021/10/29 07:57:35;;;;;;;11.57;8.02;;;15.20;94.90;;;;;;5071114;28;21184;-73
2021/10/29 08:00:03;;;;;;;11.07;7.55;;;15.30;94.30;;;;;;5069358;28;20424;-72
2021/10/29 08:02:31;;;;;;;12.48;7.40;;;15.50;94.00;;;;;;5088036;28;20770;-72
2021/10/29 08:04:57;;;;;;;12.18;7.78;;;15.90;93.30;;;;;;5088796;28;20419;-73
2021/10/29 08:07:23;;;;;;;12.70;7.20;;;16.60;91.80;;;;;;5089474;28;20484;-74
2021/10/29 08:09:49;;;;;;;12.32;7.63;;;17.60;89.40;;;;;;5069255;28;20510;-73
2021/10/29 08:12:16;;;;;;;11.77;7.25;;;18.60;83.90;;;;;;5078627;28;20406;-74
2021/10/29 08:14:44;;;;;;;10.23;6.63;;;19.30;79.50;;;;;;5095171;28;20510;-74
2021/10/29 08:17:10;;;;;;;10.27;6.90;;;19.80;76.10;;;;;;5087397;28;20446;-75
2021/10/29 08:19:36;;;;;;;11.60;6.53;;;20.40;73.00;;;;;;5094840;28;20444;-73
2021/10/29 08:22:04;;;;;;;10.75;6.80;;;20.90;69.70;;;;;;5089364;28;20438;-74
2021/10/29 08:24:30;;;;;;;;;;;21.60;66.50;;;;;;5071192;28;20507;-74
2021/10/29 08:26:58;;;;;;;;;;;21.00;72.60;;;;;;5090655;28;19920;-73
2021/10/29 08:29:25;;;;;;;;;;;20.80;75.40;;;;;;5085814;28;20011;-75
2021/10/29 08:31:51;;;;;;;;;;;20.90;78.20;;;;;;5091615;28;19912;-75
2021/10/29 08:34:17;;;;;;;;;;;21.30;79.80;;;;;;5116740;27;19908;-75
2021/10/29 08:36:44;;;;;;;11.37;6.13;;;21.50;81.00;;;;;;5086931;28;20405;-75
2021/10/29 08:39:12;;;;;;;8.50;5.65;;;23.80;59.20;;;;;;5092904;28;20398;-75
2021/10/29 08:41:40;;;;;;;9.15;5.72;;;25.00;52.80;;;;;;5086626;28;20406;-75
2021/10/29 08:44:06;;;;;;;12.45;5.63;;;25.40;50.80;;;;;;5088016;28;20497;-75
2021/10/29 08:46:33;;;;;;;10.40;5.82;;;25.70;49.70;;;;;;5089059;28;20463;-73
2021/10/29 08:48:59;;;;;;;11.32;5.85;;;26.00;48.70;;;;;;5075773;28;20918;-74
2021/10/29 08:51:26;;;;;;;10.60;5.88;;;26.50;47.50;;;;;;5090761;28;20420;-74
2021/10/29 08:53:54;;;;;;;7.20;5.43;;;26.80;46.30;;;;;;5092413;28;20416;-74
2021/10/29 08:56:20;;;;;;;10.20;5.57;;;27.00;45.60;;;;;;5089167;28;20621;-73
2021/10/29 08:59:14;;;;;;;12.05;5.70;;;27.00;45.20;;;;;;5088659;28;20504;-75
2021/10/29 09:01:47;;;;;;;10.68;5.50;;;27.00;45.50;;;;;;5086799;28;20450;-74
2021/10/29 09:04:14;;;;;;;9.32;5.60;;;27.20;44.70;;;;;;5096323;28;20763;-78
2021/10/29 09:10:00;;;;;;;12.43;5.80;;;27.30;44.20;;;;;;5079794;28;20904;-74
2021/10/29 09:31:30;;;;;;;11.43;5.50;;;27.90;42.50;;;;;;5087505;28;20406;-74
2021/10/29 09:34:05;;;;;;;12.43;5.38;;;27.90;42.40;;;;;;5086974;28;20432;-73
2021/10/29 09:36:31;;;;;;;11.60;5.30;;;28.00;42.40;;;;;;5084691;28;20487;-73
2021/10/29 09:39:05;;;;;;;9.03;5.90;;;28.20;42.20;;;;;;5087473;28;20435;-73
2021/10/29 09:41:45;;;;;;;9.27;5.70;;;28.20;41.70;;;;;;5068864;28;20547;-73
2021/10/29 09:44:19;;;;;;;9.97;6.00;;;27.60;43.10;;;;;;5091194;28;20880;-72
2021/10/29 09:46:56;;;;;;;9.63;5.50;;;26.80;44.90;;;;;;5085155;28;20412;-72
2021/10/29 09:49:31;;;;;;;10.45;5.65;;;26.40;45.70;;;;;;5086475;28;20435;-70
2021/10/29 09:55:48;;;;;;;9.70;5.43;;;27.80;44.10;;;;;;5090026;28;20402;-72
2021/10/29 09:57:30;;;;;;;8.70;5.23;;;28.50;42.50;;;;;;5074811;28;20805;-72
2021/10/29 10:00:01;;;;;;;10.50;5.20;;;28.80;41.80;;;;;;5067145;28;20474;-70
2021/10/29 10:02:29;;;;;;;8.13;5.27;;;29.20;41.10;;;;;;5085572;28;20447;-70
2021/10/29 10:04:57;;;;;;;6.47;4.60;;;29.70;40.60;;;;;;5071494;28;20938;-71
2021/10/29 10:07:24;;;;;;;7.82;4.90;;;30.10;39.60;;;;;;5085420;28;20509;-70
2021/10/29 10:09:58;;;;;;;8.48;5.20;;;30.60;38.90;;;;;;5054940;28;21438;-71
2021/10/29 10:12:27;;;;;;;6.90;4.90;;;31.00;37.80;;;;;;5102362;28;20418;-71
2021/10/29 10:14:54;;;;;;;8.82;4.90;;;31.10;37.80;;;;;;5083822;28;20421;-71
2021/10/29 10:17:21;;;;;;;8.30;4.93;;;31.20;37.80;;;;;;5084547;28;20413;-70
2021/10/29 10:19:49;;;;;;;8.68;4.70;;;31.30;38.00;;;;;;5085618;28;20419;-69
2021/10/29 10:22:18;;;;;;;10.47;4.80;;;31.30;37.90;;;;;;5087078;28;20425;-72
2021/10/29 10:24:51;;;;;;;8.32;4.72;;;31.10;37.60;;;;;;5084230;28;20229;-70
2021/10/29 10:29:59;;;;;;;5.45;4.28;;;29.30;41.50;;;;;;5087088;28;20212;-71
2021/10/29 10:43:45;;;;;;;10.70;4.60;;;30.00;39.80;;;;;;5089772;28;20386;-69
2021/10/29 10:49:12;;;;;;;10.75;4.53;;;30.20;40.40;;;;;;5092370;28;20782;-71
2021/10/29 10:54:33;;;;;;;7.07;4.55;;;30.40;38.70;;;;;;5100035;28;20413;-72
2021/10/29 11:11:00;;;;;;;7.03;4.10;;;30.60;38.40;;;;;;5061318;28;20492;-70
2021/10/29 11:13:46;;;;;;;9.10;4.30;;;30.60;39.70;;;;;;5094197;28;20874;-71
2021/10/29 11:16:31;;;;;;;8.23;4.03;;;30.60;38.70;;;;;;5088758;28;20424;-72
2021/10/29 11:19:07;;;;;;;6.68;3.83;;;30.80;38.40;;;;;;5089180;28;20407;-71
2021/10/29 11:21:38;;;;;;;5.70;3.83;;;30.80;38.60;;;;;;5088363;28;20418;-73
2021/10/29 11:24:07;;;;;;;9.93;4.20;;;31.00;38.20;;;;;;5072297;28;20526;-70
2021/10/29 11:26:44;;;;;;;8.75;4.00;;;31.00;38.40;;;;;;5110487;27;20412;-72
2021/10/29 11:29:11;;;;;;;8.45;3.67;;;31.00;38.10;;;;;;5090450;28;20397;-71
2021/10/29 11:31:49;;;;;;;8.70;3.80;;;31.10;38.00;;;;;;5089671;28;20184;-70
2021/10/29 11:34:17;;;;;;;11.15;3.63;;;30.10;39.90;;;;;;5089665;28;20209;-71
2021/10/29 11:36:50;;;;;;;7.30;3.50;;;29.40;41.60;;;;;;5088244;28;20508;-73
2021/10/29 11:39:18;;;;;;;8.55;3.53;;;30.00;39.40;;;;;;5070309;28;20453;-73
2021/10/29 11:41:46;;;;;;;10.07;3.67;;;30.40;39.40;;;;;;5090602;28;20413;-73
2021/10/29 11:44:15;;;;;;;10.85;3.90;;;30.60;39.00;;;;;;5071373;28;20859;-70
2021/10/29 11:46:43;;;;;;;;;;;30.40;38.50;;;;;;5104031;27;20047;-71
2021/10/29 11:49:15;;;;;;;;;;;29.10;40.80;;;;;;5095430;28;20415;-72
2021/10/29 11:51:42;;;;;;;;;;;28.20;43.30;;;;;;5089379;28;19912;-72
2021/10/29 12:01:50;;;;;;;;;;;26.70;46.70;;;;;;5088533;28;19969;-70
2021/10/29 12:07:19;;;;;;;;;;;26.30;47.90;;;;;;5089762;28;19991;-71
2021/10/29 12:09:53;;;;;;;;;;;26.20;49.40;;;;;;5089237;28;19957;-71
2021/10/29 12:12:21;;;;;;;;;;;26.10;49.40;;;;;;5087373;28;19911;-71
2021/10/29 12:14:50;;;;;;;;;;;26.00;50.90;;;;;;5087865;28;19920;-70
2021/10/29 12:17:33;;;;;;;;;;;26.00;49.60;;;;;;5089458;28;19912;-70
2021/10/29 12:20:10;;;;;;;;;;;26.10;49.20;;;;;;5090807;28;20277;-69
2021/10/29 12:25:12;;;;;;;;;;;26.00;49.70;;;;;;5090245;28;19916;-69
2021/10/29 12:27:46;;;;;;;;;;;25.90;50.40;;;;;;5089813;28;19912;-72
2021/10/29 13:01:35;;;;;;;12.33;4.20;;;24.60;52.60;;;;;;5085581;28;20974;-71
2021/10/29 13:04:12;;;;;;;10.68;3.80;;;25.50;49.70;;;;;;5092939;28;20224;-72
2021/10/29 13:06:42;;;;;;;9.60;3.63;;;25.00;50.90;;;;;;5087202;28;20185;-70
2021/10/29 13:09:20;;;;;;;7.28;3.15;;;24.80;51.80;;;;;;5088013;28;20265;-71
2021/10/29 13:11:50;;;;;;;6.97;3.60;;;24.60;52.50;;;;;;5086064;28;21013;-71
2021/10/29 13:14:23;;;;;;;8.00;3.83;;;25.20;51.70;;;;;;5087938;28;20501;-72
2021/10/29 13:16:50;;;;;;;8.65;4.03;;;25.30;50.80;;;;;;5087112;28;20444;-70
2021/10/29 13:19:23;;;;;;;8.05;3.90;;;25.10;50.50;;;;;;5067035;28;20441;-72
2021/10/29 13:54:25;;;;;;;9.30;4.20;;;22.50;62.20;;;;;;5087270;28;20410;-72
2021/10/29 13:59:40;;;;;;;10.75;4.32;;;22.40;60.80;;;;;;5087208;28;20402;-72
2021/10/29 14:29:21;;;;;;;10.73;4.53;;;20.40;70.70;;;;;;5091412;28;20181;-74
2021/10/29 14:31:56;;;;;;;11.10;4.53;;;20.20;71.30;;;;;;5091729;28;20212;-73
2021/10/29 14:34:26;;;;;;;10.40;4.57;;;20.10;72.60;;;;;;5103086;28;20499;-75
2021/10/29 14:37:12;;;;;;;13.83;5.07;;;20.50;76.20;;;;;;5087758;28;20437;-75
2021/10/29 14:42:16;;;;;;;11.32;5.20;;;20.40;77.60;;;;;;5088867;28;20901;-75
2021/10/29 14:44:50;;;;;;;12.63;5.35;;;20.20;79.40;;;;;;5088405;28;21550;-75
2021/10/29 14:47:36;;;;;;;15.32;5.40;;;20.00;80.70;;;;;;5054249;28;20493;-75
2021/10/29 15:27:54;;;;;;;12.82;5.80;;;18.40;93.00;;;;;;5089036;28;20413;-73
2021/10/29 15:30:39;;;;;;;9.20;5.20;;;18.40;93.60;;;;;;5074642;28;20531;-74
2021/10/29 15:33:33;;;;;;;11.07;5.18;;;18.50;93.30;;;;;;5106009;27;20431;-73
2021/10/29 15:41:41;;;;;;;11.67;5.50;;;18.40;93.50;;;;;;5067435;28;20873;-74
2021/10/29 15:51:29;;;;;;;11.70;5.03;;;18.40;93.60;;;;;;5090474;28;20413;-72
2021/10/29 15:53:54;;;;;;;11.60;4.82;;;18.40;93.80;;;;;;5088065;28;20409;-75
2021/10/29 15:56:27;;;;;;;9.00;4.60;;;18.40;93.30;;;;;;5097887;28;20450;-75
2021/10/29 15:59:35;;;;;;;8.13;4.72;;;18.40;93.80;;;;;;5096796;28;20420;-75
2021/10/29 16:17:58;;;;;;;8.35;3.80;;;18.20;93.10;;;;;;5074588;28;20442;-77
2021/10/29 16:20:24;;;;;;;7.35;3.67;;;18.20;92.90;;;;;;5096265;28;20459;-75
2021/10/29 16:22:50;;;;;;;8.57;4.00;;;18.20;92.80;;;;;;5098514;28;20418;-75
2021/10/29 16:28:03;;;;;;;7.28;3.80;;;18.10;92.90;;;;;;5092303;28;20406;-74
2021/10/29 16:30:30;;;;;;;7.50;3.53;;;18.10;93.30;;;;;;5086540;28;20475;-74
2021/10/29 16:35:29;;;;;;;5.30;3.20;;;18.00;93.00;;;;;;5092226;28;20413;-74
2021/10/29 16:37:55;;;;;;;8.50;3.00;;;17.90;93.10;;;;;;5100138;28;20406;-74
2021/10/29 16:40:21;;;;;;;6.53;3.00;;;17.90;93.20;;;;;;5095779;28;20902;-76
2021/10/29 16:42:47;;;;;;;6.65;3.35;;;17.80;93.20;;;;;;5066871;28;20547;-75
2021/10/29 16:45:16;;;;;;;6.82;3.20;;;17.80;93.50;;;;;;5057661;28;20897;-75
2021/10/29 16:47:41;;;;;;;6.13;3.25;;;17.80;93.60;;;;;;5066552;28;20397;-74
2021/10/29 16:50:09;;;;;;;6.10;3.20;;;17.80;93.70;;;;;;5086076;28;20398;-73
2021/10/29 16:52:34;;;;;;;6.70;3.20;;;17.80;93.70;;;;;;5067853;28;20501;-74
2021/10/29 16:55:00;;;;;;;5.80;2.90;;;17.70;93.70;;;;;;5096971;28;20836;-72
2021/10/29 16:57:26;;;;;;;7.00;3.13;;;17.70;93.90;;;;;;5086122;28;20414;-72
2021/10/29 16:59:51;;;;;;;6.57;3.30;;;17.60;94.00;;;;;;5068035;28;20410;-75
2021/10/29 17:02:17;;;;;;;7.90;3.30;;;17.60;93.90;;;;;;5091404;28;20416;-74
2021/10/29 17:04:43;;;;;;;5.30;3.30;;;17.50;94.10;;;;;;5067899;28;20410;-74
2021/10/29 17:07:09;;;;;;;8.40;3.40;;;17.50;94.30;;;;;;5087236;28;20846;-74
2021/10/29 17:09:35;;;;;;;6.30;3.30;;;17.50;94.50;;;;;;5086107;28;20490;-73
2021/10/29 17:12:01;;;;;;;11.73;3.90;;;17.50;94.30;;;;;;5067160;28;20500;-73
2021/10/29 17:14:27;;;;;;;6.28;3.47;;;17.40;94.40;;;;;;5085934;28;20453;-74
2021/10/29 17:16:56;;;;;;;6.32;3.70;;;17.50;94.60;;;;;;5066353;28;20461;-73
2021/10/29 17:19:22;;;;;;;8.85;3.60;;;17.40;94.40;;;;;;5086083;28;20904;-74
2021/10/29 17:21:48;;;;;;;5.93;3.50;;;17.40;94.70;;;;;;5093241;28;20817;-74
2021/10/29 17:24:14;;;;;;;8.80;4.10;;;17.30;94.90;;;;;;5085361;28;20410;-74
2021/10/29 17:26:40;;;;;;;5.93;3.80;;;17.30;94.70;;;;;;5092253;28;20394;-73
2021/10/29 17:29:06;;;;;;;6.43;3.28;;;17.40;94.90;;;;;;5090931;28;20430;-74
2021/10/29 17:31:32;;;;;;;5.53;3.63;;;17.30;94.70;;;;;;5073097;28;20405;-74
2021/10/29 17:33:57;;;;;;;7.18;3.80;;;17.30;94.70;;;;;;5085771;28;20415;-74
2021/10/29 17:36:24;;;;;;;8.60;3.40;;;17.30;95.00;;;;;;5073050;28;20409;-74
2021/10/29 17:38:50;;;;;;;5.90;3.40;;;17.30;95.00;;;;;;5070521;28;20417;-76
2021/10/29 17:41:15;;;;;;;9.38;3.67;;;17.20;95.10;;;;;;5071796;28;20413;-74
2021/10/29 17:43:41;;;;;;;6.43;3.33;;;17.20;95.10;;;;;;5069602;28;22375;-74
2021/10/29 17:46:07;;;;;;;7.97;3.92;;;17.20;95.20;;;;;;5067758;28;20397;-74
2021/10/29 17:48:33;;;;;;;7.00;3.50;;;17.10;95.30;;;;;;5059001;28;20397;-74
2021/10/29 17:50:59;;;;;;;6.40;3.67;;;17.10;95.50;;;;;;5092322;28;20402;-73
2021/10/29 17:53:28;;;;;;;6.97;3.80;;;17.00;95.70;;;;;;5094590;28;20417;-74
2021/10/29 17:55:56;;;;;;;6.65;3.80;;;17.00;95.70;;;;;;5095759;28;20463;-72